»·PEaware :: N827JR KSMX-KBFL

N827JR :: KSMX-KBFL

FLIGHT INFORMATION

Flight Status: Arrived
Operator: Privately registered:
United States
More flights under this callsign
Pilot: John R. (41564)
Aircraft: PIPER PA-28 CHEROKEE ARCHER
(P28A)
More flights by this aircraft type
Origin: KSMX Santa Maria Pub/Capt Hancock
United States
Destination: KBFL Meadows
United States
More flights between these airports :: More routes between these airports
Route:
File this flight plan on PilotEdge
Remarks:
Altitude:
(Current/Filed)
7,500ft
Speed:
(Current/Filed)
100kts
Departed: 17-Sep-22 11:53 AM
Arrived: 17-Sep-22 12:40 PM
Distance/Time
Traveled:
76nm/0:47
Distance/Time
To Go:
Arrived

Flight Plot

Page will automatically refresh every two minutes.


Map Options




Map Legend


Flown Route
Filed Route
Departure Airport
Arrival Airport
Navaid (VOR, NDB)
Fix

Horizontal Profiles

Position Reports

Time Latitude Longitude Heading Altitude Ground
Speed
17-Sep-22 11:27 34.890997 -120.451583 182 251ft 0kts
17-Sep-22 11:28 34.890997 -120.451583 182 251ft 0kts
17-Sep-22 11:29 34.890997 -120.451583 182 251ft 0kts
17-Sep-22 11:30 34.890997 -120.451583 182 251ft 0kts
17-Sep-22 11:31 34.890997 -120.451583 182 251ft 0kts
17-Sep-22 11:32 34.890997 -120.451583 182 251ft 0kts
17-Sep-22 11:33 34.890997 -120.451583 182 251ft 0kts
17-Sep-22 11:34 34.890997 -120.451583 182 251ft 0kts
17-Sep-22 11:35 34.890997 -120.451583 182 251ft 0kts
17-Sep-22 11:36 34.890997 -120.451583 182 251ft 0kts
17-Sep-22 11:37 34.890997 -120.451583 182 251ft 0kts
17-Sep-22 11:38 34.890997 -120.451584 182 251ft 0kts
17-Sep-22 11:39 34.890998 -120.451584 182 251ft 0kts
17-Sep-22 11:40 34.890998 -120.451584 182 251ft 0kts
17-Sep-22 11:41 34.890998 -120.451584 182 251ft 0kts
17-Sep-22 11:41 34.890998 -120.451583 182 251ft 0kts
17-Sep-22 11:43 34.890998 -120.451583 182 251ft 0kts
17-Sep-22 11:44 34.890998 -120.451583 182 251ft 0kts
17-Sep-22 11:45 34.891536 -120.450992 3 253ft 2kts
17-Sep-22 11:45 34.891701 -120.448784 91 261ft 11kts
17-Sep-22 11:46 34.891467 -120.446879 335 265ft 0kts
17-Sep-22 11:48 34.891467 -120.446879 334 265ft 0kts
17-Sep-22 11:49 34.891467 -120.446879 334 265ft 0kts
17-Sep-22 11:49 34.891467 -120.446879 334 265ft 0kts
17-Sep-22 11:50 34.892057 -120.446460 44 265ft 0kts
17-Sep-22 11:51 34.892070 -120.446443 44 265ft 2kts
17-Sep-22 11:52 34.898358 -120.452559 318 369ft 79kts
17-Sep-22 11:54 34.919948 -120.467636 32 1298ft 91kts
17-Sep-22 11:54 34.929031 -120.444432 87 2009ft 98kts
17-Sep-22 11:55 34.932339 -120.408856 59 2088ft 108kts
17-Sep-22 11:56 34.950144 -120.380311 52 2673ft 98kts
17-Sep-22 11:57 34.962860 -120.352069 90 3550ft 93kts
17-Sep-22 11:58 34.966546 -120.320466 82 4403ft 96kts
17-Sep-22 11:59 34.970174 -120.288655 89 5110ft 92kts
17-Sep-22 12:00 34.973293 -120.256786 85 5620ft 94kts
17-Sep-22 12:01 34.977556 -120.224339 78 6270ft 100kts
17-Sep-22 12:02 34.981219 -120.191070 77 6853ft 100kts
17-Sep-22 12:03 34.990567 -120.159084 61 7378ft 101kts
17-Sep-22 12:04 35.003495 -120.126953 60 7473ft 109kts
17-Sep-22 12:05 35.017154 -120.091937 65 7486ft 120kts
17-Sep-22 12:06 35.030414 -120.054831 65 7413ft 117kts
17-Sep-22 12:07 35.043881 -120.018613 62 7410ft 115kts
17-Sep-22 12:08 35.056400 -119.982297 68 7491ft 118kts
17-Sep-22 12:09 35.067724 -119.945273 68 7501ft 116kts
17-Sep-22 12:10 35.079159 -119.909134 65 7503ft 114kts
17-Sep-22 12:11 35.091059 -119.873419 67 7559ft 114kts
17-Sep-22 12:12 35.103338 -119.837384 60 7495ft 115kts
17-Sep-22 12:13 35.118495 -119.802460 62 7473ft 116kts
17-Sep-22 12:14 35.133045 -119.767453 60 7516ft 115kts
17-Sep-22 12:15 35.147223 -119.732134 64 7499ft 117kts
17-Sep-22 12:16 35.162178 -119.697680 61 7470ft 111kts
17-Sep-22 12:17 35.175991 -119.664329 60 7509ft 110kts
17-Sep-22 12:18 35.190048 -119.630661 60 7518ft 111kts
17-Sep-22 12:19 35.204191 -119.596676 59 7510ft 113kts
17-Sep-22 12:20 35.218659 -119.563119 58 7464ft 110kts
17-Sep-22 12:21 35.233714 -119.530042 57 7557ft 112kts
17-Sep-22 12:22 35.247679 -119.495311 59 7491ft 113kts
17-Sep-22 12:23 35.262757 -119.461581 59 7508ft 115kts
17-Sep-22 12:24 35.275663 -119.426906 57 7061ft 110kts
17-Sep-22 12:25 35.291053 -119.393428 63 6635ft 114kts
17-Sep-22 12:26 35.306380 -119.358707 60 6240ft 115kts
17-Sep-22 12:27 35.321179 -119.323092 62 5685ft 117kts
17-Sep-22 12:28 35.335879 -119.288205 61 4942ft 114kts
17-Sep-22 12:29 35.349713 -119.253616 65 4235ft 109kts
17-Sep-22 12:30 35.364305 -119.221351 50 3522ft 105kts
17-Sep-22 12:31 35.382745 -119.194170 45 2812ft 104kts
17-Sep-22 12:32 35.402440 -119.168317 45 2241ft 103kts
17-Sep-22 12:33 35.421350 -119.141569 51 1748ft 105kts
17-Sep-22 12:34 35.429514 -119.107897 83 1473ft 104kts
17-Sep-22 12:35 35.422944 -119.075358 134 1462ft 103kts
17-Sep-22 12:36 35.401667 -119.050175 130 1458ft 103kts
17-Sep-22 12:37 35.413776 -119.031376 326 1099ft 76kts
17-Sep-22 12:38 35.427707 -119.048616 314 584ft 66kts
17-Sep-22 12:39 35.436194 -119.058276 43 482ft 8kts
17-Sep-22 12:40 35.436415 -119.057974 49 482ft 4kts
17-Sep-22 12:41 35.434202 -119.054372 134 478ft 21kts
17-Sep-22 12:42 35.430263 -119.049586 136 480ft 17kts
17-Sep-22 12:43 35.429066 -119.046867 327 482ft 6kts
17-Sep-22 12:44 35.429565 -119.046735 134 484ft 0kts
17-Sep-22 12:45 35.429565 -119.046735 134 484ft 0kts
17-Sep-22 12:46 35.429565 -119.046735 134 484ft 0kts
17-Sep-22 12:47 35.429565 -119.046735 134 484ft 0kts

Navigation Log

Ident Type
Flight plan parsing failed, navigation log unavailable